createdAt,value
2017-05-16T00:01:02.744Z,19.55
2017-05-16T00:03:30.264Z,19.55
2017-05-16T00:05:57.828Z,19.36
2017-05-16T00:08:25.349Z,19.53
2017-05-16T00:10:54.061Z,19.37
2017-05-16T00:13:21.676Z,19.15
2017-05-16T00:15:49.170Z,18.93
2017-05-16T00:18:16.745Z,18.97
2017-05-16T00:20:44.269Z,18.80
2017-05-16T00:23:11.835Z,18.76
2017-05-16T00:25:39.344Z,18.62
2017-05-16T00:28:07.984Z,18.70
2017-05-16T00:30:35.483Z,18.73
2017-05-16T00:33:03.028Z,19.05
2017-05-16T00:35:30.596Z,19.11
2017-05-16T00:37:58.103Z,19.10
2017-05-16T00:40:25.659Z,19.19
2017-05-16T00:42:53.171Z,19.21
2017-05-16T00:45:20.751Z,19.21
2017-05-16T00:47:48.315Z,19.20
2017-05-16T00:50:16.011Z,19.20
2017-05-16T00:52:43.519Z,19.22
2017-05-16T00:55:11.043Z,19.21
2017-05-16T00:57:38.708Z,19.22
2017-05-16T01:00:06.260Z,19.20
2017-05-16T01:02:33.940Z,19.22
2017-05-16T01:05:01.456Z,19.25
2017-05-16T01:07:28.975Z,19.26
2017-05-16T01:09:56.607Z,19.16
2017-05-16T01:12:24.143Z,19.11
2017-05-16T01:14:51.702Z,19.02
2017-05-16T01:17:19.232Z,18.86
2017-05-16T01:19:46.944Z,18.78
2017-05-16T01:22:14.568Z,18.72
2017-05-16T01:24:42.091Z,18.79
2017-05-16T01:27:09.979Z,18.87
2017-05-16T01:29:37.497Z,18.86
2017-05-16T01:32:05.023Z,18.89
2017-05-16T01:34:32.677Z,18.94
2017-05-16T01:37:00.192Z,18.88
2017-05-16T01:39:27.910Z,18.90
2017-05-16T01:41:55.444Z,18.80
2017-05-16T01:44:22.960Z,18.83
2017-05-16T01:46:50.517Z,18.64
2017-05-16T01:49:18.027Z,18.41
2017-05-16T01:51:45.595Z,18.56
2017-05-16T01:54:13.127Z,18.60
2017-05-16T01:56:40.830Z,18.62
2017-05-16T01:59:08.352Z,18.74
2017-05-16T02:01:35.872Z,18.76
2017-05-16T02:04:03.475Z,18.69
2017-05-16T02:06:30.987Z,18.75
2017-05-16T02:08:58.668Z,18.74
2017-05-16T02:11:26.197Z,18.64
2017-05-16T02:13:53.732Z,18.71
2017-05-16T02:16:21.300Z,18.71
2017-05-16T02:18:48.833Z,18.64
2017-05-16T02:21:16.395Z,18.53
2017-05-16T02:23:43.941Z,18.57
2017-05-16T02:26:11.492Z,18.47
2017-05-16T02:28:39.050Z,18.37
2017-05-16T02:31:06.782Z,18.53
2017-05-16T02:33:34.339Z,18.48
2017-05-16T02:36:01.856Z,18.49
2017-05-16T02:38:29.408Z,18.58
2017-05-16T02:40:56.924Z,18.58
2017-05-16T02:43:24.637Z,18.53
2017-05-16T02:45:52.163Z,18.57
2017-05-16T02:48:19.676Z,18.47
2017-05-16T02:50:47.257Z,18.30
2017-05-16T02:53:14.772Z,18.34
2017-05-16T02:55:42.679Z,18.46
2017-05-16T02:58:10.206Z,18.51
2017-05-16T03:00:37.715Z,18.53
2017-05-16T03:03:05.268Z,18.50
2017-05-16T03:05:32.783Z,18.47
2017-05-16T03:08:00.356Z,18.45
2017-05-16T03:10:27.863Z,18.39
2017-05-16T03:12:55.524Z,18.42
2017-05-16T03:15:23.051Z,18.48
2017-05-16T03:17:50.571Z,18.48
2017-05-16T03:20:18.119Z,18.48
2017-05-16T03:22:45.672Z,18.54
2017-05-16T03:25:13.295Z,18.49
2017-05-16T03:27:40.809Z,18.43
2017-05-16T03:30:08.380Z,18.44
2017-05-16T03:32:35.905Z,18.45
2017-05-16T03:35:03.620Z,18.41
2017-05-16T03:37:31.149Z,18.42
2017-05-16T03:39:58.723Z,18.39
2017-05-16T03:42:26.327Z,18.38
2017-05-16T03:44:53.856Z,18.40
2017-05-16T03:47:21.755Z,18.42
2017-05-16T03:49:49.269Z,18.40
2017-05-16T03:52:16.791Z,18.42
2017-05-16T03:54:44.340Z,18.43
2017-05-16T03:57:11.844Z,18.37
2017-05-16T03:59:39.396Z,18.37
2017-05-16T04:02:06.916Z,18.35
2017-05-16T04:04:34.464Z,18.28
2017-05-16T04:07:01.980Z,18.32
2017-05-16T04:09:29.655Z,18.21
2017-05-16T04:11:57.180Z,18.28
2017-05-16T04:14:24.705Z,18.29
2017-05-16T04:16:52.256Z,18.31
2017-05-16T04:19:19.800Z,18.32
2017-05-16T04:21:47.355Z,18.29
2017-05-16T04:24:14.907Z,18.35
2017-05-16T04:26:42.580Z,18.26
2017-05-16T04:29:10.130Z,18.32
2017-05-16T04:31:37.646Z,18.23
2017-05-16T04:34:05.212Z,18.30
2017-05-16T04:36:32.741Z,18.30
2017-05-16T04:39:00.296Z,18.25
2017-05-16T04:41:27.804Z,18.28
2017-05-16T04:43:55.353Z,18.31
2017-05-16T04:46:22.877Z,18.36
2017-05-16T04:48:50.423Z,18.41
2017-05-16T04:51:17.940Z,18.42
2017-05-16T04:53:45.653Z,18.37
2017-05-16T04:56:13.171Z,18.09
2017-05-16T04:58:40.711Z,18.24
2017-05-16T05:01:08.290Z,18.34
2017-05-16T05:03:35.804Z,18.40
2017-05-16T05:06:03.361Z,18.45
2017-05-16T05:08:30.867Z,18.47
2017-05-16T05:10:58.424Z,18.49
2017-05-16T05:13:26.060Z,18.51
2017-05-16T05:15:53.747Z,18.59
2017-05-16T05:18:21.311Z,18.50
2017-05-16T05:20:48.876Z,18.48
2017-05-16T05:23:16.461Z,18.51
2017-05-16T05:25:44.096Z,18.50
2017-05-16T05:28:11.650Z,18.59
2017-05-16T05:30:39.185Z,18.68
2017-05-16T05:33:06.913Z,18.62
2017-05-16T05:35:34.485Z,18.68
2017-05-16T05:38:02.000Z,18.75
2017-05-16T05:40:29.560Z,18.76
2017-05-16T05:42:57.077Z,18.76
2017-05-16T05:45:24.635Z,18.78
2017-05-16T05:47:52.218Z,18.78
2017-05-16T05:50:19.963Z,18.79
2017-05-16T05:52:47.510Z,18.81
2017-05-16T05:55:15.163Z,18.86
2017-05-16T05:57:42.732Z,18.81
2017-05-16T06:00:10.313Z,18.74
2017-05-16T06:05:14.220Z,18.71
2017-05-16T06:07:42.333Z,18.69
2017-05-16T06:10:09.850Z,18.71
2017-05-16T06:12:37.374Z,18.76
2017-05-16T06:15:04.983Z,18.78
2017-05-16T06:17:32.515Z,18.82
2017-05-16T06:20:00.063Z,18.83
2017-05-16T06:22:27.585Z,18.88
2017-05-16T06:24:55.159Z,18.95
2017-05-16T06:27:22.696Z,19.08
2017-05-16T06:29:50.347Z,19.09
2017-05-16T06:32:17.900Z,19.10
2017-05-16T06:34:45.443Z,19.07
2017-05-16T06:37:13.029Z,19.07
2017-05-16T06:39:40.560Z,19.06
2017-05-16T06:42:08.251Z,19.09
2017-05-16T06:44:35.780Z,19.16
2017-05-16T06:47:03.291Z,19.24
2017-05-16T06:49:30.849Z,19.28
2017-05-16T06:51:58.369Z,19.38
2017-05-16T06:54:25.927Z,19.50
2017-05-16T06:56:53.470Z,19.59
2017-05-16T06:59:21.024Z,19.66
2017-05-16T07:01:48.540Z,19.76
2017-05-16T07:04:16.218Z,19.87
2017-05-16T07:06:43.764Z,19.96
2017-05-16T07:09:11.299Z,20.00
2017-05-16T07:11:38.902Z,20.12
2017-05-16T07:14:06.448Z,20.08
2017-05-16T07:16:34.017Z,20.14
2017-05-16T07:19:01.565Z,20.21
2017-05-16T07:21:29.240Z,20.24
2017-05-16T07:23:56.761Z,20.29
2017-05-16T07:26:24.277Z,20.33
2017-05-16T07:28:51.836Z,20.37
2017-05-16T07:31:19.359Z,20.33
2017-05-16T07:33:46.934Z,20.31
2017-05-16T07:36:14.483Z,20.33
2017-05-16T07:38:42.175Z,20.34
2017-05-16T07:41:09.699Z,20.32
2017-05-16T07:43:37.247Z,20.34
2017-05-16T07:46:04.799Z,20.47
2017-05-16T07:48:32.362Z,20.57
2017-05-16T07:51:00.069Z,20.68
2017-05-16T07:53:27.596Z,20.77
2017-05-16T07:55:55.117Z,20.86
2017-05-16T07:58:22.680Z,20.96
2017-05-16T08:00:50.196Z,21.02
2017-05-16T08:03:17.754Z,20.97
2017-05-16T08:05:45.276Z,21.09
2017-05-16T08:08:12.833Z,21.23
2017-05-16T08:10:40.389Z,21.39
2017-05-16T08:13:08.057Z,21.44
2017-05-16T08:15:35.580Z,21.50
2017-05-16T08:18:03.101Z,21.57
2017-05-16T08:20:30.680Z,21.66
2017-05-16T08:22:58.239Z,21.78
2017-05-16T08:25:25.828Z,21.83
2017-05-16T08:27:53.349Z,21.81
2017-05-16T08:30:20.871Z,21.92
2017-05-16T08:32:48.537Z,22.01
2017-05-16T08:35:16.156Z,21.97
2017-05-16T08:37:43.804Z,22.01
2017-05-16T08:40:11.328Z,22.02
2017-05-16T08:42:39.070Z,22.01
2017-05-16T08:45:06.599Z,22.10
2017-05-16T08:47:34.114Z,22.14
2017-05-16T08:50:01.705Z,22.17
2017-05-16T08:52:29.243Z,22.23
2017-05-16T08:54:56.812Z,22.31
2017-05-16T08:57:24.328Z,22.29
2017-05-16T08:59:52.079Z,22.28
2017-05-16T09:02:19.643Z,22.36
2017-05-16T09:04:47.221Z,22.34
2017-05-16T09:07:15.097Z,22.44
2017-05-16T09:09:42.600Z,22.44
2017-05-16T09:12:10.160Z,22.57
2017-05-16T09:14:37.680Z,22.59
2017-05-16T09:17:05.258Z,22.54
2017-05-16T09:19:32.789Z,22.56
2017-05-16T09:22:00.684Z,22.68
2017-05-16T09:24:28.221Z,22.87
2017-05-16T09:26:55.759Z,22.90
2017-05-16T09:29:23.422Z,22.91
2017-05-16T09:31:50.969Z,22.91
2017-05-16T09:34:18.544Z,23.01
2017-05-16T09:36:46.065Z,23.01
2017-05-16T09:39:13.599Z,23.02
2017-05-16T09:41:41.167Z,23.17
2017-05-16T09:44:08.685Z,23.21
2017-05-16T09:46:36.248Z,23.33
2017-05-16T09:49:03.802Z,23.40
2017-05-16T09:51:31.474Z,23.45
2017-05-16T09:53:59.057Z,23.66
2017-05-16T09:56:26.587Z,23.75
2017-05-16T09:58:54.152Z,23.85
2017-05-16T10:01:21.742Z,23.86
2017-05-16T10:03:49.402Z,23.99
2017-05-16T10:06:16.922Z,24.14
2017-05-16T10:08:44.480Z,24.34
2017-05-16T10:11:12.024Z,24.47
2017-05-16T10:13:39.591Z,24.62
2017-05-16T10:16:07.121Z,24.78
2017-05-16T10:18:34.635Z,24.97
2017-05-16T10:21:02.216Z,25.13
2017-05-16T10:23:29.729Z,25.26
2017-05-16T10:25:57.439Z,25.39
2017-05-16T10:28:24.995Z,25.32
2017-05-16T10:30:52.872Z,25.18
2017-05-16T10:33:20.483Z,25.38
2017-05-16T10:38:14.665Z,25.85
2017-05-16T10:40:42.228Z,26.03
2017-05-16T10:43:10.189Z,26.14
2017-05-16T10:45:37.714Z,26.06
2017-05-16T10:48:05.240Z,26.09
2017-05-16T10:50:32.811Z,26.33
2017-05-16T10:53:00.324Z,26.56
2017-05-16T10:55:27.895Z,26.60
2017-05-16T10:57:55.432Z,26.80
2017-05-16T11:00:23.155Z,26.92
2017-05-16T11:02:50.682Z,27.07
2017-05-16T11:05:18.228Z,27.15
2017-05-16T11:07:45.912Z,27.31
2017-05-16T11:10:13.420Z,27.46
2017-05-16T11:12:40.955Z,27.57
2017-05-16T11:15:08.509Z,27.40
2017-05-16T11:17:36.185Z,27.56
2017-05-16T11:20:03.722Z,27.89
2017-05-16T11:22:31.271Z,28.10
2017-05-16T11:24:58.907Z,28.11
2017-05-16T11:27:26.423Z,28.18
2017-05-16T11:29:54.093Z,28.02
2017-05-16T11:32:21.631Z,28.07
2017-05-16T11:34:49.227Z,28.16
2017-05-16T11:37:16.847Z,28.14
2017-05-16T11:39:44.388Z,28.28
2017-05-16T11:42:12.107Z,28.37
2017-05-16T11:44:39.632Z,28.62
2017-05-16T11:47:07.156Z,29.02
2017-05-16T11:49:34.721Z,29.13
2017-05-16T11:52:02.236Z,29.23
2017-05-16T11:54:29.788Z,29.07
2017-05-16T11:56:57.300Z,28.76
2017-05-16T11:59:24.825Z,28.45
2017-05-16T12:01:52.375Z,28.52
2017-05-16T12:04:19.887Z,28.38
2017-05-16T12:06:47.447Z,27.85
2017-05-16T12:09:14.970Z,28.17
2017-05-16T12:11:42.625Z,28.57
2017-05-16T12:14:10.169Z,28.54
2017-05-16T12:16:37.697Z,28.29
2017-05-16T12:19:05.256Z,28.00
2017-05-16T12:21:32.776Z,28.76
2017-05-16T12:24:00.623Z,28.72
2017-05-16T12:26:28.162Z,28.44
2017-05-16T12:28:55.669Z,29.13
2017-05-16T12:31:23.220Z,29.31
2017-05-16T12:33:50.752Z,29.65
2017-05-16T12:36:18.311Z,28.99
2017-05-16T12:38:45.834Z,29.03
2017-05-16T12:41:13.495Z,29.06
2017-05-16T12:43:41.016Z,28.87
2017-05-16T12:46:08.550Z,28.04
2017-05-16T12:48:36.113Z,27.84
2017-05-16T12:51:03.645Z,27.68
2017-05-16T12:53:31.213Z,28.03
2017-05-16T12:55:58.727Z,28.20
2017-05-16T12:58:26.327Z,28.17
2017-05-16T13:00:53.861Z,28.24
2017-05-16T13:03:21.455Z,28.13
2017-05-16T13:05:48.977Z,27.84
2017-05-16T13:08:16.832Z,28.29
2017-05-16T13:10:44.358Z,27.77
2017-05-16T13:13:11.872Z,27.64
2017-05-16T13:15:39.488Z,28.04
2017-05-16T13:18:07.007Z,28.64
2017-05-16T13:20:34.632Z,28.70
2017-05-16T13:23:02.140Z,28.94
2017-05-16T13:25:29.820Z,29.20
2017-05-16T13:27:57.416Z,29.18
2017-05-16T13:30:24.960Z,29.13
2017-05-16T13:32:52.576Z,28.81
2017-05-16T13:35:20.060Z,29.14
2017-05-16T13:37:47.936Z,29.03
2017-05-16T13:40:15.468Z,28.89
2017-05-16T13:42:42.999Z,28.58
2017-05-16T13:45:10.547Z,28.20
2017-05-16T13:47:38.069Z,28.04
2017-05-16T13:50:05.625Z,28.61
2017-05-16T13:52:33.218Z,29.23
2017-05-16T13:55:00.991Z,29.73
2017-05-16T13:57:28.512Z,29.40
2017-05-16T13:59:56.042Z,29.46
2017-05-16T14:02:23.611Z,29.36
2017-05-16T14:04:51.151Z,28.51
2017-05-16T14:07:18.717Z,28.43
2017-05-16T14:09:46.237Z,28.47
2017-05-16T14:12:13.904Z,28.44
2017-05-16T14:14:41.427Z,28.42
2017-05-16T14:17:09.012Z,28.38
2017-05-16T14:19:36.685Z,28.39
2017-05-16T14:22:04.260Z,29.10
2017-05-16T14:24:31.992Z,30.06
2017-05-16T14:26:59.509Z,30.85
2017-05-16T14:29:27.094Z,31.64
2017-05-16T14:31:54.662Z,31.96
2017-05-16T14:34:22.188Z,32.27
2017-05-16T14:36:50.095Z,32.08
2017-05-16T14:39:17.620Z,31.85
2017-05-16T14:41:45.156Z,31.85
2017-05-16T14:44:12.711Z,31.22
2017-05-16T14:46:40.228Z,30.49
2017-05-16T14:49:07.898Z,29.89
2017-05-16T14:51:35.432Z,29.40
2017-05-16T14:54:02.974Z,29.64
2017-05-16T14:56:30.545Z,29.68
2017-05-16T14:58:58.122Z,29.16
2017-05-16T15:01:25.721Z,28.79
2017-05-16T15:03:53.246Z,28.76
2017-05-16T15:06:20.965Z,29.20
2017-05-16T15:08:48.508Z,29.36
2017-05-16T15:11:16.072Z,29.81
2017-05-16T15:13:43.695Z,30.59
2017-05-16T15:16:11.231Z,31.04
2017-05-16T15:18:38.918Z,30.36
2017-05-16T15:21:06.458Z,29.99
2017-05-16T15:23:34.031Z,29.87
2017-05-16T15:26:01.583Z,30.07
2017-05-16T15:28:29.746Z,29.83
2017-05-16T15:30:57.748Z,29.68
2017-05-16T15:33:25.350Z,29.41
2017-05-16T15:35:52.883Z,29.81
2017-05-16T15:38:20.974Z,29.91
2017-05-16T15:40:48.483Z,30.23
2017-05-16T15:43:16.068Z,30.15
2017-05-16T15:45:43.580Z,30.14
2017-05-16T15:48:11.432Z,30.34
2017-05-16T15:50:38.977Z,30.33
2017-05-16T15:53:06.503Z,30.76
2017-05-16T15:55:34.089Z,30.92
2017-05-16T15:58:01.610Z,31.09
2017-05-16T16:00:29.199Z,30.42
2017-05-16T16:02:56.727Z,30.39
2017-05-16T16:05:24.589Z,30.13
2017-05-16T16:07:52.126Z,30.25
2017-05-16T16:10:19.655Z,30.15
2017-05-16T16:12:47.204Z,30.23
2017-05-16T16:15:14.749Z,30.63
2017-05-16T16:17:42.540Z,30.21
2017-05-16T16:20:10.080Z,30.06
2017-05-16T16:22:37.600Z,29.85
2017-05-16T16:25:05.171Z,29.73
2017-05-16T16:27:32.732Z,29.85
2017-05-16T16:30:00.293Z,29.26
2017-05-16T16:32:27.807Z,29.43
2017-05-16T16:34:55.472Z,29.15
2017-05-16T16:37:23.039Z,28.99
2017-05-16T16:39:50.562Z,29.10
2017-05-16T16:42:18.126Z,29.02
2017-05-16T16:44:45.636Z,29.18
2017-05-16T16:47:13.210Z,29.15
2017-05-16T16:49:40.728Z,29.54
2017-05-16T16:52:08.409Z,30.03
2017-05-16T16:54:35.935Z,29.70
2017-05-16T16:57:03.478Z,30.08
2017-05-16T16:59:31.108Z,29.76
2017-05-16T17:01:58.655Z,29.72
2017-05-16T17:04:26.335Z,29.46
2017-05-16T17:06:53.912Z,29.27
2017-05-16T17:09:21.444Z,29.06
2017-05-16T17:11:48.989Z,28.95
2017-05-16T17:14:16.499Z,28.83
2017-05-16T17:16:44.523Z,29.01
2017-05-16T17:19:12.042Z,29.07
2017-05-16T17:21:39.795Z,28.96
2017-05-16T17:24:07.331Z,28.86
2017-05-16T17:26:34.856Z,28.53
2017-05-16T17:29:02.414Z,28.48
2017-05-16T17:31:29.935Z,28.35
2017-05-16T17:33:57.798Z,28.47
2017-05-16T17:36:25.574Z,28.62
2017-05-16T17:38:53.155Z,28.65
2017-05-16T17:41:20.748Z,28.50
2017-05-16T17:43:48.282Z,28.55
2017-05-16T17:46:15.838Z,28.49
2017-05-16T17:48:43.392Z,28.40
2017-05-16T17:51:11.053Z,28.30
2017-05-16T17:53:38.660Z,28.09
2017-05-16T17:56:06.200Z,28.07
2017-05-16T17:58:33.800Z,27.96
2017-05-16T18:01:01.327Z,27.88
2017-05-16T18:03:28.890Z,27.83
2017-05-16T18:05:56.412Z,27.77
2017-05-16T18:08:23.979Z,27.85
2017-05-16T18:10:51.627Z,27.84
2017-05-16T18:13:19.263Z,27.76
2017-05-16T18:15:46.841Z,27.73
2017-05-16T18:18:14.407Z,27.67
2017-05-16T18:20:42.002Z,27.49
2017-05-16T18:23:09.565Z,27.62
2017-05-16T18:25:37.135Z,27.44
2017-05-16T18:28:04.714Z,27.46
2017-05-16T18:30:32.425Z,27.42
2017-05-16T18:32:59.944Z,27.44
2017-05-16T18:35:27.479Z,27.52
2017-05-16T18:37:55.019Z,27.43
2017-05-16T18:40:22.536Z,27.41
2017-05-16T18:42:50.144Z,27.17
2017-05-16T18:45:17.665Z,26.97
2017-05-16T18:47:45.230Z,26.79
2017-05-16T18:50:12.758Z,26.71
2017-05-16T18:52:40.418Z,26.60
2017-05-16T18:55:07.944Z,26.58
2017-05-16T18:57:35.475Z,26.56
2017-05-16T19:00:03.050Z,26.43
2017-05-16T19:02:30.582Z,26.50
2017-05-16T19:04:58.267Z,26.43
2017-05-16T19:07:25.791Z,26.42
2017-05-16T19:09:53.323Z,26.29
2017-05-16T19:12:20.877Z,26.37
2017-05-16T19:14:48.400Z,26.33
2017-05-16T19:17:16.053Z,26.25
2017-05-16T19:19:43.634Z,26.22
2017-05-16T19:22:11.195Z,26.09
2017-05-16T19:24:38.776Z,26.04
2017-05-16T19:27:06.315Z,26.10
2017-05-16T19:29:34.071Z,25.97
2017-05-16T19:32:01.592Z,25.87
2017-05-16T19:34:29.104Z,25.98
2017-05-16T19:36:56.667Z,26.15
2017-05-16T19:39:24.240Z,26.15
2017-05-16T19:41:51.787Z,26.08
2017-05-16T19:44:19.377Z,26.02
2017-05-16T19:46:47.192Z,25.97
2017-05-16T19:49:14.744Z,25.98
2017-05-16T19:51:42.279Z,25.93
2017-05-16T19:54:09.941Z,25.90
2017-05-16T19:56:37.478Z,25.76
2017-05-16T19:59:05.039Z,25.76
2017-05-16T20:01:32.584Z,25.77
2017-05-16T20:04:00.148Z,25.54
2017-05-16T20:06:27.688Z,25.48
2017-05-16T20:08:55.431Z,25.53
2017-05-16T20:11:22.940Z,25.45
2017-05-16T20:13:50.451Z,25.44
2017-05-16T20:16:18.003Z,25.28
2017-05-16T20:18:45.547Z,25.43
2017-05-16T20:21:13.135Z,25.30
2017-05-16T20:23:40.669Z,25.24
2017-05-16T20:26:08.487Z,25.22
2017-05-16T20:28:36.068Z,25.21
2017-05-16T20:31:03.627Z,25.21
2017-05-16T20:33:31.274Z,25.19
2017-05-16T20:35:58.804Z,25.10
2017-05-16T20:38:26.440Z,25.24
2017-05-16T20:40:53.980Z,25.28
2017-05-16T20:43:21.865Z,25.28
2017-05-16T20:48:16.178Z,25.40
2017-05-16T20:50:44.033Z,25.39
2017-05-16T20:53:11.586Z,25.31
2017-05-16T20:55:39.126Z,25.27
2017-05-16T20:58:06.667Z,25.19
2017-05-16T21:00:34.193Z,25.18
2017-05-16T21:03:01.741Z,25.14
2017-05-16T21:05:29.269Z,25.09
2017-05-16T21:07:56.840Z,25.07
2017-05-16T21:10:24.372Z,24.95
2017-05-16T21:12:51.899Z,24.96
2017-05-16T21:15:19.456Z,24.83
2017-05-16T21:17:46.970Z,24.81
2017-05-16T21:20:14.851Z,24.82
2017-05-16T21:22:42.360Z,24.80
2017-05-16T21:25:09.884Z,24.81
2017-05-16T21:27:37.436Z,24.80
2017-05-16T21:30:04.948Z,24.70
2017-05-16T21:32:32.512Z,24.64
2017-05-16T21:35:00.025Z,24.64
2017-05-16T21:37:27.570Z,24.51
2017-05-16T21:39:55.103Z,24.57
2017-05-16T21:42:23.176Z,24.57
2017-05-16T21:44:50.688Z,24.53
2017-05-16T21:47:18.207Z,24.58
2017-05-16T21:49:45.759Z,24.56
2017-05-16T21:52:13.289Z,24.49
2017-05-16T21:54:41.192Z,24.43
2017-05-16T21:57:08.758Z,24.33
2017-05-16T21:59:36.279Z,24.32
2017-05-16T22:02:03.966Z,24.33
2017-05-16T22:04:31.477Z,24.29
2017-05-16T22:06:58.989Z,24.30
2017-05-16T22:09:26.532Z,24.30
2017-05-16T22:11:54.063Z,24.30
2017-05-16T22:14:21.632Z,24.27
2017-05-16T22:16:49.179Z,24.31
2017-05-16T22:19:16.925Z,24.26
2017-05-16T22:21:44.503Z,24.23
2017-05-16T22:24:12.015Z,24.21
2017-05-16T22:26:39.580Z,24.17
2017-05-16T22:29:07.100Z,24.18
2017-05-16T22:31:34.654Z,24.17
2017-05-16T22:34:02.184Z,24.22
2017-05-16T22:36:29.756Z,24.24
2017-05-16T22:38:57.307Z,24.21
2017-05-16T22:41:24.923Z,24.15
2017-05-16T22:43:52.660Z,24.11
2017-05-16T22:46:20.188Z,24.11
2017-05-16T22:48:47.787Z,23.99
2017-05-16T22:51:15.363Z,23.89
2017-05-16T22:53:42.871Z,23.99
2017-05-16T22:56:10.432Z,23.93
2017-05-16T22:58:37.959Z,23.88
2017-05-16T23:01:05.693Z,23.85
2017-05-16T23:03:33.207Z,23.83
2017-05-16T23:06:00.745Z,23.86
2017-05-16T23:08:28.329Z,23.83
2017-05-16T23:10:55.864Z,23.81
2017-05-16T23:13:23.636Z,23.77
2017-05-16T23:15:51.244Z,23.70
2017-05-16T23:18:18.761Z,23.67
2017-05-16T23:20:46.319Z,23.63
2017-05-16T23:23:13.917Z,23.63
2017-05-16T23:25:41.721Z,23.58
2017-05-16T23:28:09.234Z,23.53
2017-05-16T23:30:36.786Z,23.50
2017-05-16T23:33:04.365Z,23.48
2017-05-16T23:35:31.903Z,23.46
2017-05-16T23:37:59.487Z,23.40
2017-05-16T23:40:27.174Z,23.42
2017-05-16T23:42:54.740Z,23.46
2017-05-16T23:45:22.308Z,23.43
2017-05-16T23:47:49.836Z,23.44
2017-05-16T23:50:17.391Z,23.42
2017-05-16T23:52:45.045Z,23.40
2017-05-16T23:55:12.597Z,23.40
2017-05-16T23:57:40.202Z,23.38
